createdAt,value
2017-09-07T00:00:38.437Z,13.38
2017-09-07T00:01:47.275Z,13.38
2017-09-07T00:02:56.117Z,13.44
2017-09-07T00:04:04.959Z,13.38
2017-09-07T00:05:13.801Z,13.36
2017-09-07T00:06:22.794Z,13.12
2017-09-07T00:07:31.636Z,13.26
2017-09-07T00:08:40.477Z,13.28
2017-09-07T00:09:49.318Z,13.17
2017-09-07T00:10:58.160Z,13.36
2017-09-07T00:12:07.153Z,13.32
2017-09-07T00:13:15.998Z,13.29
2017-09-07T00:14:24.840Z,13.19
2017-09-07T00:15:33.707Z,13.23
2017-09-07T00:16:42.523Z,13.14
2017-09-07T00:17:51.569Z,13.25
2017-09-07T00:19:00.414Z,13.26
2017-09-07T00:20:09.260Z,13.23
2017-09-07T00:21:18.105Z,13.17
2017-09-07T00:22:26.944Z,13.3
2017-09-07T00:23:35.838Z,13.22
2017-09-07T00:24:44.684Z,13.04
2017-09-07T00:25:53.530Z,12.97
2017-09-07T00:27:02.374Z,13.04
2017-09-07T00:28:11.217Z,13
2017-09-07T00:29:20.365Z,12.95
2017-09-07T00:30:29.209Z,12.9
2017-09-07T00:31:38.054Z,12.86
2017-09-07T00:32:46.897Z,13.01
2017-09-07T00:33:55.742Z,13
2017-09-07T00:35:04.788Z,13
2017-09-07T00:36:13.629Z,12.93
2017-09-07T00:37:22.805Z,13.08
2017-09-07T00:38:31.651Z,12.95
2017-09-07T00:39:40.494Z,12.96
2017-09-07T00:40:49.489Z,12.9
2017-09-07T00:41:58.334Z,12.92
2017-09-07T00:43:07.177Z,12.93
2017-09-07T00:44:16.021Z,12.96
2017-09-07T00:45:24.865Z,12.9
2017-09-07T00:46:33.861Z,12.96
2017-09-07T00:47:42.708Z,12.92
2017-09-07T00:48:51.551Z,12.87
2017-09-07T00:50:00.395Z,12.89
2017-09-07T00:51:09.240Z,12.92
2017-09-07T00:52:18.385Z,12.96
2017-09-07T00:53:27.229Z,13
2017-09-07T00:54:36.075Z,13.22
2017-09-07T00:55:44.919Z,13.11
2017-09-07T00:56:53.761Z,13.04
2017-09-07T00:58:02.904Z,13.07
2017-09-07T00:59:12.080Z,12.96
2017-09-07T01:00:20.922Z,13
2017-09-07T01:01:29.766Z,13.04
2017-09-07T01:02:38.608Z,13.17
2017-09-07T01:03:47.703Z,13.04
2017-09-07T01:04:56.545Z,13.15
2017-09-07T01:06:05.388Z,13.1
2017-09-07T01:07:14.229Z,13.03
2017-09-07T01:08:23.073Z,13.05
2017-09-07T01:09:32.063Z,13.07
2017-09-07T01:10:40.909Z,13.3
2017-09-07T01:11:49.752Z,13.07
2017-09-07T01:12:58.592Z,13.07
2017-09-07T01:14:07.769Z,13.19
2017-09-07T01:15:17.041Z,13.22
2017-09-07T01:16:25.882Z,13.03
2017-09-07T01:17:34.725Z,13.08
2017-09-07T01:18:43.569Z,12.95
2017-09-07T01:19:52.409Z,13.03
2017-09-07T01:21:01.452Z,12.97
2017-09-07T01:22:10.296Z,13.07
2017-09-07T01:23:19.138Z,12.96
2017-09-07T01:24:27.981Z,13
2017-09-07T01:25:37.153Z,13.01
2017-09-07T01:26:46.047Z,13.04
2017-09-07T01:27:54.889Z,13
2017-09-07T01:29:03.733Z,13.03
2017-09-07T01:30:12.573Z,13.04
2017-09-07T01:31:21.413Z,13.08
2017-09-07T01:32:30.414Z,13
2017-09-07T01:33:39.246Z,13.03
2017-09-07T01:34:48.090Z,13.01
2017-09-07T01:35:56.930Z,13.04
2017-09-07T01:37:05.773Z,13
2017-09-07T01:38:14.765Z,12.97
2017-09-07T01:39:23.937Z,13.08
2017-09-07T01:40:32.782Z,12.95
2017-09-07T01:41:41.623Z,13
2017-09-07T01:42:50.467Z,13.01
2017-09-07T01:43:59.306Z,13.1
2017-09-07T01:45:08.148Z,13
2017-09-07T01:46:16.991Z,13.03
2017-09-07T01:47:25.831Z,12.97
2017-09-07T01:48:34.672Z,13.12
2017-09-07T01:49:43.996Z,13.26
2017-09-07T01:50:52.842Z,13.26
2017-09-07T01:52:01.682Z,13.08
2017-09-07T01:53:10.527Z,13.25
2017-09-07T01:54:19.369Z,13.19
2017-09-07T01:55:28.309Z,13.44
2017-09-07T01:56:37.153Z,13.28
2017-09-07T01:57:45.996Z,13.15
2017-09-07T01:58:54.839Z,13.04
2017-09-07T02:00:03.679Z,12.95
2017-09-07T02:01:12.570Z,12.85
2017-09-07T02:02:21.414Z,12.79
2017-09-07T02:03:30.254Z,12.79
2017-09-07T02:04:39.097Z,13
2017-09-07T02:05:47.939Z,12.92
2017-09-07T02:06:57.164Z,13.14
2017-09-07T02:08:06.006Z,13.17
2017-09-07T02:09:14.847Z,13.25
2017-09-07T02:10:23.692Z,13.14
2017-09-07T02:11:32.533Z,13.12
2017-09-07T02:12:41.524Z,13.15
2017-09-07T02:13:50.367Z,13.3
2017-09-07T02:14:59.208Z,13.48
2017-09-07T02:16:08.051Z,13.26
2017-09-07T02:17:16.893Z,13.12
2017-09-07T02:18:25.838Z,13.25
2017-09-07T02:19:34.728Z,13.39
2017-09-07T02:20:43.577Z,13.26
2017-09-07T02:21:53.092Z,13.19
2017-09-07T02:23:01.934Z,13.33
2017-09-07T02:24:11.026Z,13.05
2017-09-07T02:25:19.869Z,13.12
2017-09-07T02:26:28.711Z,13.2
2017-09-07T02:27:37.556Z,13.03
2017-09-07T02:28:46.400Z,13.25
2017-09-07T02:29:55.292Z,13.33
2017-09-07T02:31:04.135Z,13.19
2017-09-07T02:32:12.976Z,13.36
2017-09-07T02:33:21.815Z,13.32
2017-09-07T02:34:30.999Z,13.17
2017-09-07T02:35:40.141Z,13.36
2017-09-07T02:36:48.983Z,13.19
2017-09-07T02:37:57.823Z,13.15
2017-09-07T02:39:06.665Z,13.07
2017-09-07T02:40:15.508Z,12.97
2017-09-07T02:41:24.450Z,13.14
2017-09-07T02:42:33.295Z,13.08
2017-09-07T02:43:42.134Z,13.07
2017-09-07T02:44:50.977Z,13.01
2017-09-07T02:45:59.817Z,12.96
2017-09-07T02:47:08.811Z,13.03
2017-09-07T02:48:17.658Z,13.1
2017-09-07T02:49:26.500Z,13.11
2017-09-07T02:50:35.346Z,13.33
2017-09-07T02:51:44.189Z,13.39
2017-09-07T02:52:53.037Z,13.32
2017-09-07T02:54:02.217Z,13.29
2017-09-07T02:55:11.060Z,13.2
2017-09-07T02:56:19.903Z,13.08
2017-09-07T02:57:28.746Z,13.07
2017-09-07T02:58:37.691Z,13.2
2017-09-07T02:59:46.537Z,13.01
2017-09-07T03:00:55.377Z,13.38
2017-09-07T03:02:04.222Z,13.15
2017-09-07T03:03:13.064Z,13.15
2017-09-07T03:04:21.910Z,13.07
2017-09-07T03:05:30.754Z,13.25
2017-09-07T03:06:39.600Z,13.03
2017-09-07T03:07:48.446Z,13.04
2017-09-07T03:08:57.623Z,13.05
2017-09-07T03:10:06.767Z,12.96
2017-09-07T03:11:15.610Z,13.01
2017-09-07T03:12:24.457Z,13.03
2017-09-07T03:13:33.304Z,13.1
2017-09-07T03:14:42.149Z,13.03
2017-09-07T03:15:51.245Z,12.97
2017-09-07T03:17:00.088Z,13.07
2017-09-07T03:18:08.934Z,13.29
2017-09-07T03:19:18.107Z,13.15
2017-09-07T03:20:26.952Z,13.25
2017-09-07T03:21:35.947Z,13.05
2017-09-07T03:22:44.792Z,12.97
2017-09-07T03:23:53.636Z,13.29
2017-09-07T03:25:02.484Z,13.04
2017-09-07T03:26:11.324Z,12.97
2017-09-07T03:27:20.464Z,13.01
2017-09-07T03:28:29.307Z,13.03
2017-09-07T03:29:38.153Z,13
2017-09-07T03:30:47.002Z,12.95
2017-09-07T03:31:55.849Z,12.9
2017-09-07T03:33:04.743Z,12.93
2017-09-07T03:34:13.587Z,12.87
2017-09-07T03:35:22.765Z,12.85
2017-09-07T03:36:31.610Z,12.87
2017-09-07T03:37:40.456Z,12.79
2017-09-07T03:38:49.601Z,12.74
2017-09-07T03:39:58.447Z,12.86
2017-09-07T03:41:07.291Z,12.95
2017-09-07T03:42:16.135Z,12.9
2017-09-07T03:43:24.981Z,12.87
2017-09-07T03:44:33.975Z,12.85
2017-09-07T03:45:43.154Z,12.78
2017-09-07T03:46:51.997Z,12.7
2017-09-07T03:48:00.843Z,12.78
2017-09-07T03:49:09.688Z,12.75
2017-09-07T03:50:18.681Z,12.87
2017-09-07T03:51:27.524Z,12.93
2017-09-07T03:52:36.368Z,12.87
2017-09-07T03:53:45.214Z,12.79
2017-09-07T03:54:54.057Z,12.79
2017-09-07T03:56:02.952Z,12.82
2017-09-07T03:57:11.794Z,12.78
2017-09-07T03:58:20.638Z,12.64
2017-09-07T03:59:29.485Z,12.74
2017-09-07T04:00:38.332Z,12.56
2017-09-07T04:01:47.426Z,12.7
2017-09-07T04:02:56.272Z,12.68
2017-09-07T04:04:05.117Z,12.64
2017-09-07T04:05:13.962Z,12.83
2017-09-07T04:06:23.135Z,12.79
2017-09-07T04:07:31.979Z,12.87
2017-09-07T04:08:40.824Z,12.93
2017-09-07T04:09:49.667Z,12.72
2017-09-07T04:10:58.513Z,12.87
2017-09-07T04:12:07.356Z,12.72
2017-09-07T04:13:16.398Z,12.68
2017-09-07T04:14:25.243Z,12.64
2017-09-07T04:15:34.088Z,12.5
2017-09-07T04:16:43.259Z,12.59
2017-09-07T04:17:52.103Z,12.53
2017-09-07T04:19:00.996Z,12.54
2017-09-07T04:20:09.838Z,12.72
2017-09-07T04:21:18.681Z,12.75
2017-09-07T04:22:27.526Z,12.74
2017-09-07T04:23:36.379Z,12.53
2017-09-07T04:24:45.370Z,12.53
2017-09-07T04:25:54.215Z,12.56
2017-09-07T04:27:03.058Z,12.68
2017-09-07T04:28:11.902Z,12.65
2017-09-07T04:29:20.746Z,12.59
2017-09-07T04:30:29.741Z,12.65
2017-09-07T04:31:38.587Z,12.52
2017-09-07T04:32:47.447Z,12.65
2017-09-07T04:33:56.292Z,12.7
2017-09-07T04:35:05.139Z,12.7
2017-09-07T04:36:14.036Z,12.57
2017-09-07T04:37:22.881Z,12.7
2017-09-07T04:38:31.728Z,12.52
2017-09-07T04:39:40.573Z,12.71
2017-09-07T04:40:49.418Z,12.74
2017-09-07T04:41:58.412Z,12.72
2017-09-07T04:43:07.257Z,12.7
2017-09-07T04:44:16.103Z,12.67
2017-09-07T04:45:24.948Z,12.65
2017-09-07T04:46:33.794Z,12.7
2017-09-07T04:47:42.788Z,12.62
2017-09-07T04:48:51.634Z,12.65
2017-09-07T04:50:00.477Z,12.7
2017-09-07T04:51:09.324Z,12.5
2017-09-07T04:52:18.166Z,12.68
2017-09-07T04:53:27.058Z,12.64
2017-09-07T04:54:35.903Z,12.77
2017-09-07T04:55:44.744Z,12.82
2017-09-07T04:56:53.587Z,12.87
2017-09-07T04:58:02.433Z,12.85
2017-09-07T04:59:11.329Z,12.79
2017-09-07T05:00:20.173Z,12.9
2017-09-07T05:01:29.041Z,12.86
2017-09-07T05:02:37.919Z,13
2017-09-07T05:03:46.736Z,13.05
2017-09-07T05:04:55.765Z,12.89
2017-09-07T05:06:04.912Z,12.85
2017-09-07T05:07:13.756Z,12.9
2017-09-07T05:08:22.603Z,12.96
2017-09-07T05:09:31.448Z,13.15
2017-09-07T05:10:40.344Z,13.14
2017-09-07T05:11:49.192Z,13.26
2017-09-07T05:12:58.039Z,13.15
2017-09-07T05:14:06.918Z,13.15
2017-09-07T05:15:15.761Z,13.32
2017-09-07T05:16:24.655Z,13.55
2017-09-07T05:17:33.500Z,13.45
2017-09-07T05:18:42.347Z,13.38
2017-09-07T05:19:51.191Z,13.22
2017-09-07T05:21:00.038Z,13.26
2017-09-07T05:22:09.037Z,13.14
2017-09-07T05:23:17.888Z,13.12
2017-09-07T05:24:26.736Z,13.2
2017-09-07T05:25:35.581Z,13.17
2017-09-07T05:26:44.428Z,13.2
2017-09-07T05:27:53.572Z,13.17
2017-09-07T05:29:02.418Z,13.15
2017-09-07T05:30:11.264Z,13.32
2017-09-07T05:31:20.108Z,13.29
2017-09-07T05:32:28.955Z,13.32
2017-09-07T05:33:37.947Z,13.38
2017-09-07T05:34:46.793Z,13.23
2017-09-07T05:35:55.641Z,13.29
2017-09-07T05:37:04.489Z,13.28
2017-09-07T05:38:13.336Z,13.36
2017-09-07T05:39:22.284Z,13.38
2017-09-07T05:40:31.466Z,13.29
2017-09-07T05:41:40.314Z,13.41
2017-09-07T05:42:49.160Z,13.32
2017-09-07T05:43:58.009Z,13.46
2017-09-07T05:45:06.954Z,13.51
2017-09-07T05:46:15.799Z,13.49
2017-09-07T05:47:24.647Z,13.48
2017-09-07T05:48:33.493Z,13.52
2017-09-07T05:49:42.339Z,13.49
2017-09-07T05:50:51.484Z,13.48
2017-09-07T05:52:00.329Z,13.48
2017-09-07T05:53:09.176Z,13.52
2017-09-07T05:54:18.021Z,13.64
2017-09-07T05:55:26.868Z,13.41
2017-09-07T05:56:35.866Z,13.51
2017-09-07T05:57:44.711Z,13.6
2017-09-07T05:58:53.554Z,13.49
2017-09-07T06:00:02.401Z,13.51
2017-09-07T06:01:11.249Z,13.48
2017-09-07T06:02:20.245Z,13.52
2017-09-07T06:03:29.090Z,13.52
2017-09-07T06:04:37.935Z,13.6
2017-09-07T06:05:46.784Z,13.67
2017-09-07T06:06:55.631Z,13.51
2017-09-07T06:08:04.527Z,13.62
2017-09-07T06:09:13.373Z,13.62
2017-09-07T06:10:22.226Z,13.63
2017-09-07T06:11:31.410Z,13.69
2017-09-07T06:12:40.255Z,13.75
2017-09-07T06:13:49.201Z,13.75
2017-09-07T06:14:58.051Z,13.71
2017-09-07T06:16:06.898Z,13.71
2017-09-07T06:17:15.742Z,13.75
2017-09-07T06:18:24.587Z,13.78
2017-09-07T06:19:33.484Z,13.77
2017-09-07T06:20:42.331Z,13.77
2017-09-07T06:21:51.175Z,13.78
2017-09-07T06:23:00.023Z,13.79
2017-09-07T06:24:08.868Z,13.88
2017-09-07T06:25:17.944Z,13.79
2017-09-07T06:26:26.790Z,13.85
2017-09-07T06:27:35.637Z,13.85
2017-09-07T06:28:44.483Z,13.78
2017-09-07T06:29:53.328Z,13.79
2017-09-07T06:31:02.326Z,13.88
2017-09-07T06:32:11.169Z,13.87
2017-09-07T06:33:20.015Z,13.87
2017-09-07T06:34:28.866Z,13.92
2017-09-07T06:35:37.720Z,13.89
2017-09-07T06:36:46.759Z,13.92
2017-09-07T06:37:55.606Z,13.91
2017-09-07T06:39:04.453Z,14.04
2017-09-07T06:40:13.302Z,13.95
2017-09-07T06:41:22.481Z,13.99
2017-09-07T06:42:31.581Z,13.99
2017-09-07T06:43:40.429Z,14.04
2017-09-07T06:44:49.278Z,13.99
2017-09-07T06:45:58.122Z,14.07
2017-09-07T06:47:06.967Z,14
2017-09-07T06:48:15.968Z,14.07
2017-09-07T06:49:24.811Z,14.09
2017-09-07T06:50:33.660Z,13.92
2017-09-07T06:51:42.506Z,14.07
2017-09-07T06:52:51.353Z,14.07
2017-09-07T06:54:00.350Z,14.06
2017-09-07T06:55:09.196Z,14.04
2017-09-07T06:56:18.046Z,14.03
2017-09-07T06:57:28.905Z,13.99
2017-09-07T06:58:38.284Z,14.17
2017-09-07T06:59:47.184Z,14.03
2017-09-07T07:00:56.031Z,14.03
2017-09-07T07:02:04.878Z,14.04
2017-09-07T07:03:13.723Z,14.03
2017-09-07T07:04:22.572Z,14.06
2017-09-07T07:05:31.820Z,14.02
2017-09-07T07:06:40.768Z,14.14
2017-09-07T07:07:49.616Z,14.09
2017-09-07T07:08:58.464Z,14.14
2017-09-07T07:10:07.311Z,14.04
2017-09-07T07:11:16.261Z,14.04
2017-09-07T07:12:25.104Z,14.06
2017-09-07T07:13:33.950Z,14
2017-09-07T07:14:42.795Z,13.92
2017-09-07T07:15:51.644Z,13.88
2017-09-07T07:17:00.640Z,13.95
2017-09-07T07:18:09.482Z,13.97
2017-09-07T07:19:18.327Z,13.95
2017-09-07T07:20:27.173Z,13.81
2017-09-07T07:21:36.015Z,13.79
2017-09-07T07:22:44.910Z,13.81
2017-09-07T07:23:53.752Z,13.75
2017-09-07T07:25:02.596Z,13.77
2017-09-07T07:26:11.439Z,13.79
2017-09-07T07:27:20.283Z,13.81
2017-09-07T07:28:29.179Z,13.89
2017-09-07T07:29:38.025Z,13.97
2017-09-07T07:30:46.869Z,13.99
2017-09-07T07:31:55.714Z,14.04
2017-09-07T07:33:04.557Z,14.04
2017-09-07T07:34:13.454Z,14.06
2017-09-07T07:35:22.297Z,14.04
2017-09-07T07:36:31.141Z,14.04
2017-09-07T07:37:39.992Z,14.18
2017-09-07T07:38:48.839Z,14.21
2017-09-07T07:39:57.881Z,14.15
2017-09-07T07:41:06.727Z,14.29
2017-09-07T07:42:15.903Z,14.27
2017-09-07T07:43:24.751Z,14.29
2017-09-07T07:44:33.598Z,14.28
2017-09-07T07:45:42.491Z,14.28
2017-09-07T07:46:51.336Z,14.45
2017-09-07T07:48:00.185Z,14.51
2017-09-07T07:49:09.025Z,14.52
2017-09-07T07:50:17.872Z,14.55
2017-09-07T07:51:26.765Z,14.58
2017-09-07T07:52:35.945Z,14.6
2017-09-07T07:53:44.793Z,14.47
2017-09-07T07:54:53.638Z,14.57
2017-09-07T07:56:02.483Z,14.69
2017-09-07T07:57:11.708Z,14.69
2017-09-07T07:58:20.555Z,14.68
2017-09-07T07:59:29.451Z,14.77
2017-09-07T08:00:38.296Z,14.69
2017-09-07T08:01:47.144Z,14.78
2017-09-07T08:02:56.042Z,14.8
2017-09-07T08:04:04.888Z,14.84
2017-09-07T08:05:13.736Z,14.94
2017-09-07T08:06:22.579Z,14.91
2017-09-07T08:07:31.428Z,14.95
2017-09-07T08:08:40.570Z,14.95
2017-09-07T08:09:49.416Z,15.11
2017-09-07T08:10:58.263Z,15.02
2017-09-07T08:12:07.108Z,15.11
2017-09-07T08:13:15.954Z,15.07
2017-09-07T08:14:24.950Z,15.01
2017-09-07T08:15:33.798Z,15.07
2017-09-07T08:16:42.644Z,15.09
2017-09-07T08:17:51.489Z,15.13
2017-09-07T08:19:00.335Z,15.14
2017-09-07T08:20:09.328Z,15.16
2017-09-07T08:21:18.176Z,15.2
2017-09-07T08:22:27.022Z,15.29
2017-09-07T08:23:35.868Z,15.27
2017-09-07T08:24:45.046Z,15.31
2017-09-07T08:25:54.192Z,15.38
2017-09-07T08:27:03.040Z,15.35
2017-09-07T08:28:11.886Z,15.38
2017-09-07T08:29:20.735Z,15.39
2017-09-07T08:30:29.582Z,15.54
2017-09-07T08:31:38.579Z,15.59
2017-09-07T08:32:47.424Z,15.53
2017-09-07T08:33:56.268Z,15.51
2017-09-07T08:35:05.113Z,15.56
2017-09-07T08:36:13.957Z,15.65
2017-09-07T08:37:22.953Z,15.65
2017-09-07T08:38:31.798Z,15.71
2017-09-07T08:39:40.641Z,15.78
2017-09-07T08:40:49.484Z,15.89
2017-09-07T08:41:58.332Z,15.97
2017-09-07T08:43:07.330Z,15.97
2017-09-07T08:44:16.173Z,16.02
2017-09-07T08:45:25.019Z,16.04
2017-09-07T08:46:33.863Z,16.05
2017-09-07T08:47:42.709Z,15.9
2017-09-07T08:48:51.658Z,15.96
2017-09-07T08:50:00.503Z,16
2017-09-07T08:51:09.352Z,15.97
2017-09-07T08:52:18.197Z,16.08
2017-09-07T08:53:27.042Z,16.12
2017-09-07T08:54:35.991Z,16.23
2017-09-07T08:55:44.844Z,16.24
2017-09-07T08:56:53.691Z,16.25
2017-09-07T08:58:02.536Z,16.25
2017-09-07T08:59:11.386Z,16.28
2017-09-07T09:00:20.282Z,16.33
2017-09-07T09:01:29.128Z,16.35
2017-09-07T09:02:37.977Z,16.34
2017-09-07T09:03:47.154Z,16.49
2017-09-07T09:04:56.001Z,16.45
2017-09-07T09:06:04.995Z,16.46
2017-09-07T09:07:14.176Z,16.41
2017-09-07T09:08:23.024Z,16.35
2017-09-07T09:09:31.880Z,16.46
2017-09-07T09:10:40.716Z,16.38
2017-09-07T09:11:49.664Z,16.43
2017-09-07T09:12:58.510Z,16.46
2017-09-07T09:14:07.356Z,16.64
2017-09-07T09:15:16.203Z,16.67
2017-09-07T09:16:25.051Z,16.71
2017-09-07T09:17:34.103Z,16.66
2017-09-07T09:18:42.951Z,16.64
2017-09-07T09:19:51.807Z,16.73
2017-09-07T09:21:01.318Z,16.75
2017-09-07T09:22:10.165Z,16.79
2017-09-07T09:23:19.161Z,16.68
2017-09-07T09:24:28.009Z,16.7
2017-09-07T09:25:36.854Z,16.75
2017-09-07T09:26:45.701Z,16.81
2017-09-07T09:27:54.545Z,16.76
2017-09-07T09:29:03.441Z,16.79
2017-09-07T09:30:12.290Z,16.75
2017-09-07T09:31:21.140Z,16.78
2017-09-07T09:32:29.989Z,16.81
2017-09-07T09:33:38.837Z,16.82
2017-09-07T09:34:47.886Z,16.73
2017-09-07T09:35:56.732Z,16.82
2017-09-07T09:37:05.579Z,16.79
2017-09-07T09:38:14.425Z,16.75
2017-09-07T09:39:23.272Z,16.78
2017-09-07T09:40:32.322Z,16.76
2017-09-07T09:41:41.172Z,16.83
2017-09-07T09:42:50.023Z,16.68
2017-09-07T09:43:58.869Z,16.86
2017-09-07T09:45:08.048Z,16.93
2017-09-07T09:46:17.046Z,16.98
2017-09-07T09:47:25.895Z,16.93
2017-09-07T09:48:34.748Z,16.91
2017-09-07T09:49:43.594Z,16.91
2017-09-07T09:50:52.442Z,16.91
2017-09-07T09:52:01.440Z,16.93
2017-09-07T09:53:10.290Z,16.96
2017-09-07T09:54:19.135Z,16.83
2017-09-07T09:55:27.984Z,16.94
2017-09-07T09:56:36.830Z,16.94
2017-09-07T09:57:45.674Z,16.97
2017-09-07T09:58:54.522Z,16.94
2017-09-07T10:00:03.708Z,17.03
2017-09-07T10:01:12.886Z,17.03
2017-09-07T10:02:21.732Z,17.14
2017-09-07T10:03:30.776Z,17.08
2017-09-07T10:04:39.623Z,17.04
2017-09-07T10:05:48.473Z,17.12
2017-09-07T10:06:57.322Z,17.15
2017-09-07T10:08:06.169Z,17.16
2017-09-07T10:09:15.117Z,17.18
2017-09-07T10:10:23.966Z,17.15
2017-09-07T10:11:32.811Z,17.23
2017-09-07T10:12:41.660Z,17.26
2017-09-07T10:13:50.507Z,17.37
2017-09-07T10:14:59.556Z,17.38
2017-09-07T10:16:08.403Z,17.38
2017-09-07T10:17:17.255Z,17.37
2017-09-07T10:18:26.104Z,17.41
2017-09-07T10:19:34.951Z,17.38
2017-09-07T10:20:43.901Z,17.46
2017-09-07T10:21:52.748Z,17.54
2017-09-07T10:23:01.594Z,17.63
2017-09-07T10:24:10.773Z,17.74
2017-09-07T10:25:19.620Z,17.75
2017-09-07T10:26:28.518Z,17.64
2017-09-07T10:27:37.366Z,17.74
2017-09-07T10:28:46.216Z,17.71
2017-09-07T10:29:55.064Z,17.82
2017-09-07T10:31:03.913Z,17.92
2017-09-07T10:32:12.864Z,17.86
2017-09-07T10:33:21.714Z,17.77
2017-09-07T10:34:30.563Z,17.82
2017-09-07T10:35:39.410Z,17.66
2017-09-07T10:36:48.258Z,17.72
2017-09-07T10:37:57.257Z,17.63
2017-09-07T10:39:06.104Z,17.64
2017-09-07T10:40:14.954Z,17.56
2017-09-07T10:41:24.141Z,17.59
2017-09-07T10:42:32.985Z,17.52
2017-09-07T10:43:42.081Z,17.55
2017-09-07T10:44:50.930Z,17.62
2017-09-07T10:45:59.778Z,17.56
2017-09-07T10:47:08.624Z,17.48
2017-09-07T10:48:17.472Z,17.52
2017-09-07T10:49:26.418Z,17.46
2017-09-07T10:50:35.264Z,17.52
2017-09-07T10:51:44.110Z,17.49
2017-09-07T10:52:52.957Z,17.48
2017-09-07T10:54:01.804Z,17.51
2017-09-07T10:55:10.804Z,17.51
2017-09-07T10:56:19.650Z,17.56
2017-09-07T10:57:28.497Z,17.56
2017-09-07T10:58:37.343Z,17.62
2017-09-07T10:59:46.194Z,17.71
2017-09-07T11:00:55.442Z,17.79
2017-09-07T11:02:04.625Z,17.89
2017-09-07T11:03:13.479Z,18.03
2017-09-07T11:04:22.323Z,18.15
2017-09-07T11:05:31.173Z,18.27
2017-09-07T11:06:40.654Z,18.14
2017-09-07T11:07:49.501Z,18.14
2017-09-07T11:08:58.349Z,18.32
2017-09-07T11:10:07.196Z,18.32
2017-09-07T11:11:16.044Z,18.48
2017-09-07T11:12:24.941Z,18.5
2017-09-07T11:13:33.793Z,18.6
2017-09-07T11:14:42.643Z,18.5
2017-09-07T11:15:51.490Z,18.54
2017-09-07T11:17:00.341Z,18.63
2017-09-07T11:18:09.488Z,18.67
2017-09-07T11:19:18.337Z,18.73
2017-09-07T11:20:27.199Z,18.75
2017-09-07T11:21:36.038Z,18.73
2017-09-07T11:22:44.889Z,18.87
2017-09-07T11:23:53.788Z,18.75
2017-09-07T11:25:02.640Z,18.65
2017-09-07T11:26:11.490Z,18.69
2017-09-07T11:27:20.340Z,18.67
2017-09-07T11:28:29.191Z,18.78
2017-09-07T11:29:38.090Z,18.81
2017-09-07T11:30:46.939Z,18.92
2017-09-07T11:31:56.125Z,18.84
2017-09-07T11:33:04.975Z,18.88
2017-09-07T11:34:13.829Z,18.94
2017-09-07T11:35:23.352Z,19.1
2017-09-07T11:36:32.200Z,18.94
2017-09-07T11:37:41.050Z,18.87
2017-09-07T11:38:49.901Z,18.85
2017-09-07T11:39:58.750Z,18.81
2017-09-07T11:41:07.945Z,18.82
2017-09-07T11:42:16.795Z,18.81
2017-09-07T11:43:25.643Z,18.65
2017-09-07T11:44:34.492Z,18.63
2017-09-07T11:45:43.343Z,18.54
2017-09-07T11:46:52.190Z,18.44
2017-09-07T11:48:01.039Z,18.51
2017-09-07T11:49:09.890Z,18.44
2017-09-07T11:50:18.741Z,18.41
2017-09-07T11:51:27.590Z,18.44
2017-09-07T11:52:36.441Z,18.26
2017-09-07T11:53:45.290Z,18.3
2017-09-07T11:54:54.142Z,18.25
2017-09-07T11:56:02.991Z,18.18
2017-09-07T11:57:11.841Z,18.25
2017-09-07T11:58:20.689Z,18.23
2017-09-07T11:59:29.661Z,18.26
2017-09-07T12:00:38.510Z,18.05
2017-09-07T12:01:47.358Z,18.1
2017-09-07T12:02:56.205Z,18.07
2017-09-07T12:04:05.055Z,17.95
2017-09-07T12:05:13.902Z,17.95
2017-09-07T12:06:22.753Z,17.89
2017-09-07T12:07:31.611Z,17.97
2017-09-07T12:08:40.454Z,18.07
2017-09-07T12:09:49.304Z,18
2017-09-07T12:10:58.153Z,17.99
2017-09-07T12:12:07.201Z,18.03
2017-09-07T12:13:16.050Z,17.95
2017-09-07T12:14:24.899Z,17.97
2017-09-07T12:15:33.750Z,18
2017-09-07T12:16:42.599Z,18.02
2017-09-07T12:17:51.848Z,18.1
2017-09-07T12:19:00.796Z,18.03
2017-09-07T12:20:09.646Z,18.03
2017-09-07T12:21:18.827Z,18.07
2017-09-07T12:22:27.676Z,18.11
2017-09-07T12:23:36.626Z,18.1
2017-09-07T12:24:45.477Z,18.18
2017-09-07T12:25:54.326Z,18.15
2017-09-07T12:27:03.179Z,18.2
2017-09-07T12:28:12.019Z,18.14
2017-09-07T12:29:21.170Z,18.25
2017-09-07T12:30:30.348Z,18.33
2017-09-07T12:31:39.194Z,18.21
2017-09-07T12:32:48.042Z,18.21
2017-09-07T12:33:56.887Z,18.15
2017-09-07T12:35:05.885Z,18.15
2017-09-07T12:36:14.735Z,18.12
2017-09-07T12:37:23.596Z,18.15
2017-09-07T12:38:32.815Z,18.18
2017-09-07T12:39:41.958Z,18.1
2017-09-07T12:40:50.808Z,18.21
2017-09-07T12:41:59.658Z,18.11
2017-09-07T12:43:08.506Z,18.21
2017-09-07T12:44:17.354Z,18.2
2017-09-07T12:45:26.200Z,18.29
2017-09-07T12:46:35.250Z,18.32
2017-09-07T12:47:44.098Z,18.37
2017-09-07T12:48:52.946Z,18.47
2017-09-07T12:50:02.126Z,18.5
2017-09-07T12:51:10.975Z,18.45
2017-09-07T12:52:20.074Z,18.5
2017-09-07T12:53:28.921Z,18.45
2017-09-07T12:54:37.769Z,18.47
2017-09-07T12:55:46.618Z,18.6
2017-09-07T12:56:55.468Z,18.6
2017-09-07T12:58:04.369Z,18.75
2017-09-07T12:59:13.220Z,18.66
2017-09-07T13:00:22.069Z,18.78
2017-09-07T13:01:30.923Z,18.76
2017-09-07T13:02:39.769Z,18.75
2017-09-07T13:03:48.769Z,18.78
2017-09-07T13:04:57.619Z,18.66
2017-09-07T13:06:06.467Z,18.72
2017-09-07T13:07:15.318Z,18.67
2017-09-07T13:08:24.169Z,18.63
2017-09-07T13:09:33.066Z,18.66
2017-09-07T13:10:41.912Z,18.57
2017-09-07T13:11:50.761Z,18.63
2017-09-07T13:12:59.609Z,18.52
2017-09-07T13:14:08.461Z,18.37
2017-09-07T13:15:17.460Z,18.39
2017-09-07T13:16:26.309Z,18.39
2017-09-07T13:17:35.155Z,18.3
2017-09-07T13:18:44.003Z,18.32
2017-09-07T13:19:52.853Z,18.21
2017-09-07T13:21:01.775Z,17.96
2017-09-07T13:22:10.954Z,17.74
2017-09-07T13:23:19.802Z,17.55
2017-09-07T13:24:28.649Z,17.3
2017-09-07T13:25:37.497Z,17.14
2017-09-07T13:26:46.496Z,16.94
2017-09-07T13:27:55.343Z,16.79
2017-09-07T13:29:04.193Z,16.91
2017-09-07T13:30:13.050Z,16.71
2017-09-07T13:31:22.223Z,16.46
2017-09-07T13:32:31.121Z,16.49
2017-09-07T13:33:39.969Z,16.38
2017-09-07T13:34:48.818Z,16.31
2017-09-07T13:35:57.665Z,16.2
2017-09-07T13:37:06.537Z,16.23
2017-09-07T13:38:15.786Z,16.14
2017-09-07T13:39:24.633Z,16.17
2017-09-07T13:40:33.483Z,16.17
2017-09-07T13:41:42.409Z,16.12
2017-09-07T13:42:51.470Z,16.3
2017-09-07T13:44:00.371Z,16.24
2017-09-07T13:45:09.220Z,16.25
2017-09-07T13:46:18.069Z,16.24
2017-09-07T13:47:26.916Z,16.25
2017-09-07T13:48:35.760Z,16.15
2017-09-07T13:49:44.903Z,16.08
2017-09-07T13:50:53.751Z,16.07
2017-09-07T13:52:02.597Z,16.12
2017-09-07T13:53:11.445Z,16.11
2017-09-07T13:54:20.288Z,16.11
2017-09-07T13:55:29.184Z,16.28
2017-09-07T13:56:38.030Z,16.35
2017-09-07T13:57:46.880Z,16.34
2017-09-07T13:58:55.726Z,16.43
2017-09-07T14:00:04.571Z,16.41
2017-09-07T14:01:13.419Z,16.49
2017-09-07T14:02:22.270Z,16.45
2017-09-07T14:03:31.117Z,16.48
2017-09-07T14:04:39.971Z,16.6
2017-09-07T14:05:48.823Z,16.63
2017-09-07T14:06:57.718Z,16.73
2017-09-07T14:08:06.665Z,16.81
2017-09-07T14:09:15.923Z,16.88
2017-09-07T14:10:24.771Z,16.88
2017-09-07T14:11:33.619Z,16.89
2017-09-07T14:12:42.571Z,16.98
2017-09-07T14:13:51.420Z,16.79
2017-09-07T14:15:00.269Z,16.85
2017-09-07T14:16:09.121Z,16.97
2017-09-07T14:17:17.983Z,16.97
2017-09-07T14:18:26.930Z,16.91
2017-09-07T14:19:35.799Z,16.88
2017-09-07T14:20:44.666Z,16.94
2017-09-07T14:21:53.518Z,17
2017-09-07T14:23:02.370Z,16.89
2017-09-07T14:24:11.374Z,16.94
2017-09-07T14:25:20.219Z,17.04
2017-09-07T14:26:29.067Z,17.04
2017-09-07T14:27:37.915Z,16.96
2017-09-07T14:28:46.778Z,16.96
2017-09-07T14:29:55.776Z,17.07
2017-09-07T14:31:04.628Z,17.15
2017-09-07T14:32:13.473Z,17.15
2017-09-07T14:33:22.321Z,17.22
2017-09-07T14:34:31.169Z,17.19
2017-09-07T14:35:40.186Z,17.19
2017-09-07T14:36:49.038Z,17.22
2017-09-07T14:37:57.887Z,17.14
2017-09-07T14:39:06.772Z,17.19
2017-09-07T14:40:15.609Z,17.31
2017-09-07T14:41:24.508Z,17.31
2017-09-07T14:42:33.358Z,17.23
2017-09-07T14:43:42.208Z,17.19
2017-09-07T14:44:51.080Z,17.19
2017-09-07T14:45:59.973Z,17.21
2017-09-07T14:47:09.379Z,17.19
2017-09-07T14:48:18.229Z,17.19
2017-09-07T14:49:27.086Z,17.3
2017-09-07T14:50:35.942Z,17.26
2017-09-07T14:51:44.790Z,17.33